Time;durP1;ratioP1;P1;durP2;ratioP2;P2;SDS_P1;SDS_P2;PMS_P1;PMS_P2;Temp;Humidity;BMP_temperature;BMP_pressure;BME280_temperature;BME280_humidity;BME280_pressure;Samples;Min_cycle;Max_cycle;Signal;HPM_P1;HPM_P2
2022/06/27 00:00:46;;;;;;;2.10;0.70;;;18.30;99.90;;;;;;5068433;28;20185;-76
2022/06/27 00:03:12;;;;;;;1.67;0.90;;;18.20;99.90;;;;;;5075912;28;20213;-77
2022/06/27 00:05:38;;;;;;;2.37;0.97;;;18.10;99.90;;;;;;5080301;28;20462;-75
2022/06/27 00:08:04;;;;;;;2.23;1.00;;;18.10;99.90;;;;;;5085236;28;20180;-77
2022/06/27 00:10:30;;;;;;;2.03;0.87;;;18.00;99.90;;;;;;5062170;28;20188;-76
2022/06/27 00:12:55;;;;;;;19.57;1.43;;;17.90;99.90;;;;;;5069963;28;20415;-76
2022/06/27 00:15:22;;;;;;;2.07;0.97;;;17.80;99.90;;;;;;5062013;28;20691;-75
2022/06/27 00:17:47;;;;;;;2.00;0.83;;;17.70;99.90;;;;;;5067523;28;20181;-75
2022/06/27 00:20:14;;;;;;;2.10;1.00;;;17.70;99.90;;;;;;5067842;28;20784;-76
2022/06/27 00:22:40;;;;;;;2.00;0.77;;;17.50;99.90;;;;;;5070722;28;20761;-75
2022/06/27 00:25:06;;;;;;;4.30;1.00;;;17.40;99.90;;;;;;5081410;28;21024;-76
2022/06/27 00:27:32;;;;;;;1.53;0.63;;;17.20;99.90;;;;;;5066280;28;20181;-76
2022/06/27 00:29:57;;;;;;;4.67;1.10;;;17.10;99.90;;;;;;5061721;28;20441;-76
2022/06/27 00:32:23;;;;;;;2.90;1.03;;;17.00;99.90;;;;;;5065443;28;20205;-76
2022/06/27 00:34:50;;;;;;;9.70;1.10;;;17.00;99.90;;;;;;5078281;28;20215;-76
2022/06/27 00:37:16;;;;;;;3.93;0.90;;;16.90;99.90;;;;;;5066578;28;20185;-75
2022/06/27 00:39:41;;;;;;;3.27;1.30;;;16.90;99.90;;;;;;5067250;28;20415;-76
2022/06/27 00:42:07;;;;;;;3.20;1.17;;;16.90;99.90;;;;;;5067236;28;20485;-77
2022/06/27 00:44:35;;;;;;;1.63;0.90;;;16.90;99.90;;;;;;5059796;28;20838;-77
2022/06/27 00:47:03;;;;;;;6.53;1.50;;;16.80;99.90;;;;;;5070195;28;20925;-77
2022/06/27 00:49:29;;;;;;;1.80;0.90;;;16.80;99.90;;;;;;5068399;28;20419;-78
2022/06/27 00:51:55;;;;;;;2.90;0.70;;;16.80;99.90;;;;;;5067808;28;21099;-77
2022/06/27 00:54:22;;;;;;;2.47;1.00;;;16.80;99.90;;;;;;5080069;28;20315;-78
2022/06/27 00:56:50;;;;;;;3.03;0.63;;;16.70;99.90;;;;;;5067878;28;20451;-77
2022/06/27 00:59:15;;;;;;;6.20;1.37;;;16.70;99.90;;;;;;5074501;28;20514;-77
2022/06/27 01:01:41;;;;;;;1.97;0.60;;;16.60;99.90;;;;;;5082921;28;20509;-77
2022/06/27 01:04:07;;;;;;;2.10;0.80;;;16.50;99.90;;;;;;5066510;28;20200;-74
2022/06/27 01:06:33;;;;;;;3.23;0.93;;;16.40;99.90;;;;;;5082768;28;20374;-77
2022/06/27 01:08:59;;;;;;;2.33;1.10;;;16.40;99.90;;;;;;5072887;28;20181;-77
2022/06/27 01:11:25;;;;;;;13.73;1.13;;;16.40;99.90;;;;;;5060607;28;20188;-77
2022/06/27 01:13:51;;;;;;;1.90;0.70;;;16.40;99.90;;;;;;5082888;28;20211;-76
2022/06/27 01:16:18;;;;;;;3.97;0.90;;;16.40;99.90;;;;;;5068580;28;20196;-77
2022/06/27 01:18:44;;;;;;;1.70;0.70;;;16.30;99.90;;;;;;5067173;28;20472;-77
2022/06/27 01:21:22;;;;;;;5.83;0.90;;;16.40;99.90;;;;;;5075179;28;20792;-77
2022/06/27 01:23:49;;;;;;;1.40;0.60;;;16.40;99.90;;;;;;5074653;28;20438;-77
2022/06/27 01:26:16;;;;;;;1.60;0.70;;;16.40;99.90;;;;;;5064523;28;20469;-77
2022/06/27 01:28:42;;;;;;;2.27;1.00;;;16.40;99.90;;;;;;5065406;28;20423;-77
2022/06/27 01:31:11;;;;;;;1.70;0.90;;;16.40;99.90;;;;;;5072071;28;20430;-76
2022/06/27 01:33:37;;;;;;;1.77;0.80;;;16.40;99.90;;;;;;5064886;28;20458;-77
2022/06/27 01:38:53;;;;;;;3.60;1.00;;;16.40;99.90;;;;;;5065388;28;20422;-77
2022/06/27 01:41:19;;;;;;;2.97;0.60;;;16.30;99.90;;;;;;5068121;28;20431;-77
2022/06/27 01:43:47;;;;;;;2.60;0.90;;;16.30;99.90;;;;;;5066105;28;20981;-77
2022/06/27 01:46:12;;;;;;;1.50;0.73;;;16.20;99.90;;;;;;5065966;28;20457;-77
2022/06/27 01:48:41;;;;;;;1.57;0.70;;;16.20;99.90;;;;;;5066760;28;20423;-77
2022/06/27 01:51:08;;;;;;;2.57;1.07;;;16.10;99.90;;;;;;5070048;28;20263;-77
2022/06/27 01:53:36;;;;;;;4.27;1.00;;;16.10;99.90;;;;;;5068816;28;20468;-77
2022/06/27 01:56:03;;;;;;;3.73;0.70;;;16.10;99.90;;;;;;5066630;28;20441;-77
2022/06/27 01:58:28;;;;;;;2.50;0.73;;;16.00;99.90;;;;;;5065190;28;20431;-77
2022/06/27 02:00:54;;;;;;;6.37;1.17;;;16.00;99.90;;;;;;5071046;28;20461;-77
2022/06/27 02:03:21;;;;;;;11.50;1.43;;;16.10;99.90;;;;;;5078031;28;20644;-77
2022/06/27 02:05:47;;;;;;;2.20;1.07;;;16.00;99.90;;;;;;5066347;28;20685;-77
2022/06/27 02:08:14;;;;;;;1.70;0.80;;;16.10;99.90;;;;;;5066533;28;20449;-76
2022/06/27 02:10:40;;;;;;;4.77;1.07;;;16.10;99.90;;;;;;5067078;28;20927;-77
2022/06/27 02:13:06;;;;;;;2.00;0.90;;;16.10;99.90;;;;;;5079996;28;20558;-77
2022/06/27 02:15:32;;;;;;;2.70;1.00;;;16.10;99.90;;;;;;5077590;28;20407;-77
2022/06/27 02:17:57;;;;;;;1.90;0.90;;;16.10;99.90;;;;;;5066606;28;20181;-74
2022/06/27 02:20:24;;;;;;;2.30;1.20;;;16.10;99.90;;;;;;5066439;28;20200;-77
2022/06/27 02:22:50;;;;;;;2.77;1.10;;;16.10;99.90;;;;;;5080188;28;20188;-76
2022/06/27 02:25:15;;;;;;;13.33;1.33;;;16.10;99.90;;;;;;5065820;28;20459;-77
2022/06/27 02:27:42;;;;;;;2.23;0.97;;;16.00;99.90;;;;;;5064401;28;20177;-77
2022/06/27 02:30:08;;;;;;;1.80;0.80;;;16.00;99.90;;;;;;5064386;28;20177;-76
2022/06/27 02:32:34;;;;;;;2.20;0.90;;;15.90;99.90;;;;;;5074261;28;21027;-77
2022/06/27 02:34:59;;;;;;;3.40;1.40;;;16.00;99.90;;;;;;5064288;28;21024;-77
2022/06/27 02:37:25;;;;;;;1.70;0.73;;;16.00;99.90;;;;;;5064555;28;20207;-77
2022/06/27 02:39:54;;;;;;;2.80;1.27;;;16.00;99.90;;;;;;5065007;28;20191;-76
2022/06/27 02:42:21;;;;;;;2.23;0.80;;;16.00;99.90;;;;;;5080345;28;20434;-77
2022/06/27 02:44:50;;;;;;;4.63;0.93;;;15.90;99.90;;;;;;5069922;28;20808;-76
2022/06/27 02:47:21;;;;;;;3.00;0.80;;;16.00;99.90;;;;;;5069649;28;20415;-77
2022/06/27 02:49:48;;;;;;;2.83;1.03;;;16.00;99.90;;;;;;5069673;28;20435;-77
2022/06/27 02:52:47;;;;;;;3.50;1.27;;;16.00;99.90;;;;;;5082673;28;20442;-74
2022/06/27 02:55:15;;;;;;;1.63;0.83;;;16.00;99.90;;;;;;5056619;28;21117;-76
2022/06/27 02:57:46;;;;;;;2.00;1.20;;;16.00;99.90;;;;;;5069933;28;20881;-77
2022/06/27 03:00:14;;;;;;;2.43;1.00;;;15.90;99.90;;;;;;5075577;28;20438;-77
2022/06/27 03:02:43;;;;;;;1.97;1.10;;;16.00;99.90;;;;;;5080007;28;20454;-77
2022/06/27 03:05:09;;;;;;;12.47;1.93;;;16.00;99.90;;;;;;5080035;28;20481;-77
2022/06/27 03:07:43;;;;;;;2.73;1.20;;;15.90;99.90;;;;;;5069469;28;20431;-77
2022/06/27 03:10:12;;;;;;;2.43;1.10;;;16.00;99.90;;;;;;5077587;28;20180;-77
2022/06/27 03:12:38;;;;;;;5.10;1.27;;;16.00;99.90;;;;;;5062818;28;20860;-77
2022/06/27 03:15:05;;;;;;;2.23;1.13;;;16.00;99.90;;;;;;5080743;28;20449;-77
2022/06/27 03:17:30;;;;;;;4.00;1.67;;;16.00;99.90;;;;;;5069063;28;20932;-77
2022/06/27 03:19:56;;;;;;;2.47;1.30;;;16.00;99.90;;;;;;5067808;28;20419;-77
2022/06/27 03:22:22;;;;;;;3.03;1.20;;;16.00;99.90;;;;;;5072924;28;20185;-77
2022/06/27 03:24:47;;;;;;;5.30;1.50;;;16.00;99.90;;;;;;5070100;28;20282;-77
2022/06/27 03:27:13;;;;;;;2.00;0.93;;;16.00;99.90;;;;;;5067864;28;20192;-77
2022/06/27 03:29:39;;;;;;;8.27;1.57;;;16.00;99.90;;;;;;5067427;28;20216;-77
2022/06/27 03:32:05;;;;;;;2.20;1.13;;;16.00;99.90;;;;;;5071643;28;20189;-76
2022/06/27 03:34:31;;;;;;;3.90;1.33;;;16.10;99.90;;;;;;5068023;28;20201;-77
2022/06/27 03:36:57;;;;;;;3.60;1.00;;;16.10;99.90;;;;;;5069067;28;20450;-78
2022/06/27 03:39:23;;;;;;;2.20;1.20;;;16.10;99.90;;;;;;5068989;28;20461;-77
2022/06/27 03:41:49;;;;;;;2.80;1.03;;;16.10;99.90;;;;;;5078630;28;20740;-76
2022/06/27 03:44:15;;;;;;;3.13;1.20;;;16.10;99.90;;;;;;5088891;28;20462;-77
2022/06/27 03:46:41;;;;;;;2.77;1.30;;;16.10;99.90;;;;;;5077135;28;20510;-77
2022/06/27 03:51:52;;;;;;;2.20;1.03;;;16.10;99.90;;;;;;5080769;28;20699;-74
2022/06/27 03:54:18;;;;;;;2.70;1.30;;;16.20;99.90;;;;;;5084233;28;20990;-77
2022/06/27 03:56:43;;;;;;;3.50;1.43;;;16.20;99.90;;;;;;5068724;28;20419;-77
2022/06/27 03:59:09;;;;;;;3.10;1.43;;;16.10;99.90;;;;;;5070520;28;20465;-76
2022/06/27 04:01:35;;;;;;;2.60;1.63;;;16.10;99.90;;;;;;5087231;28;20200;-74
2022/06/27 04:04:02;;;;;;;2.40;1.20;;;16.10;99.90;;;;;;5074054;28;20255;-77
2022/06/27 04:06:28;;;;;;;3.70;1.50;;;16.10;99.90;;;;;;5057654;28;20464;-77
2022/06/27 04:08:53;;;;;;;5.07;1.73;;;16.10;99.90;;;;;;5077396;28;20518;-75
2022/06/27 04:11:19;;;;;;;3.47;1.70;;;16.10;99.90;;;;;;5074754;28;20200;-77
2022/06/27 04:13:44;;;;;;;3.50;1.70;;;16.10;99.90;;;;;;5079887;28;20220;-78
2022/06/27 04:16:10;;;;;;;4.20;1.87;;;16.10;99.90;;;;;;5083054;28;20184;-77
2022/06/27 04:18:36;;;;;;;5.17;1.80;;;16.10;99.90;;;;;;5071690;28;20185;-74
2022/06/27 04:21:02;;;;;;;3.97;1.77;;;16.20;99.90;;;;;;5106691;28;20173;-77
2022/06/27 04:23:27;;;;;;;4.13;1.57;;;16.20;99.90;;;;;;5096856;28;20193;-77
2022/06/27 04:25:53;;;;;;;2.87;1.50;;;16.20;99.90;;;;;;5098384;28;20230;-78
2022/06/27 04:28:19;;;;;;;2.80;1.53;;;16.30;99.90;;;;;;5097614;28;20188;-75
2022/06/27 04:30:46;;;;;;;3.83;1.87;;;16.30;99.90;;;;;;5097444;28;20195;-77
2022/06/27 04:33:12;;;;;;;4.73;1.33;;;16.30;99.90;;;;;;5099820;28;20193;-76
2022/06/27 04:35:40;;;;;;;3.30;1.40;;;16.30;99.90;;;;;;5106709;28;20442;-77
2022/06/27 04:38:06;;;;;;;2.60;1.40;;;16.40;99.90;;;;;;5098481;28;20188;-75
2022/06/27 04:40:32;;;;;;;2.57;1.47;;;16.30;99.90;;;;;;5098109;28;20441;-77
2022/06/27 04:42:59;;;;;;;4.73;1.50;;;16.40;99.90;;;;;;5108817;28;20486;-76
2022/06/27 04:45:27;;;;;;;3.10;1.50;;;16.40;99.90;;;;;;5097025;28;20618;-77
2022/06/27 04:47:53;;;;;;;3.20;1.43;;;16.40;99.90;;;;;;5088347;28;20483;-77
2022/06/27 04:50:21;;;;;;;6.00;2.20;;;16.40;99.90;;;;;;5078419;28;21186;-77
2022/06/27 04:52:49;;;;;;;2.27;1.30;;;16.40;99.90;;;;;;5067693;28;20415;-76
2022/06/27 04:55:15;;;;;;;2.97;1.40;;;16.40;99.90;;;;;;5068231;28;20423;-77
2022/06/27 04:57:42;;;;;;;6.50;1.17;;;16.50;99.90;;;;;;5069111;28;20472;-77
2022/06/27 05:00:13;;;;;;;2.10;1.30;;;16.50;99.90;;;;;;5079096;28;20430;-77
2022/06/27 05:02:40;;;;;;;7.93;1.20;;;16.60;99.90;;;;;;5079277;28;20436;-78
2022/06/27 05:05:06;;;;;;;1.77;1.03;;;16.60;99.90;;;;;;5060412;28;20928;-78
2022/06/27 05:07:32;;;;;;;3.40;1.13;;;16.70;99.90;;;;;;5082649;28;20509;-77
2022/06/27 05:09:58;;;;;;;5.73;1.00;;;16.80;99.90;;;;;;5075470;28;20533;-77
2022/06/27 05:12:25;;;;;;;3.00;1.40;;;16.80;99.90;;;;;;5080207;28;20180;-77
2022/06/27 05:14:51;;;;;;;1.90;0.87;;;16.90;99.90;;;;;;5069030;28;20975;-76
2022/06/27 05:17:17;;;;;;;2.77;1.00;;;16.90;99.90;;;;;;5077464;28;20427;-76
2022/06/27 05:19:44;;;;;;;1.60;0.90;;;17.00;99.90;;;;;;5086942;28;21004;-77
2022/06/27 05:22:10;;;;;;;7.23;0.90;;;17.00;99.90;;;;;;5095486;28;20684;-75
2022/06/27 05:24:36;;;;;;;3.83;1.13;;;17.10;99.90;;;;;;5076801;28;21139;-77
2022/06/27 05:27:02;;;;;;;2.20;1.10;;;17.10;99.90;;;;;;5082497;28;21164;-76
2022/06/27 05:29:28;;;;;;;8.43;1.70;;;17.20;99.90;;;;;;5086053;28;21036;-78
2022/06/27 05:31:54;;;;;;;2.33;1.10;;;17.20;99.90;;;;;;5081120;28;20441;-77
2022/06/27 05:34:20;;;;;;;2.77;1.30;;;17.20;99.90;;;;;;5079492;28;20752;-77
2022/06/27 05:36:47;;;;;;;5.60;1.40;;;17.20;99.90;;;;;;5086464;28;20513;-77
2022/06/27 05:39:12;;;;;;;3.10;1.40;;;17.30;99.90;;;;;;5085845;28;20190;-76
2022/06/27 05:41:38;;;;;;;1.97;1.13;;;17.30;99.90;;;;;;5086120;28;20426;-73
2022/06/27 05:44:04;;;;;;;1.73;0.80;;;17.30;99.90;;;;;;5085384;28;20208;-77
2022/06/27 05:46:30;;;;;;;3.50;1.30;;;17.20;99.90;;;;;;5069693;28;20465;-76
2022/06/27 05:48:57;;;;;;;8.33;1.50;;;17.30;99.90;;;;;;5097664;28;20467;-77
2022/06/27 05:51:23;;;;;;;1.40;0.70;;;17.30;99.90;;;;;;5082983;28;20204;-76
2022/06/27 05:53:50;;;;;;;3.50;1.20;;;17.30;99.90;;;;;;5065959;28;20951;-77
2022/06/27 05:56:17;;;;;;;3.20;1.20;;;17.30;99.90;;;;;;5073748;28;20426;-77
2022/06/27 05:58:43;;;;;;;3.57;1.80;;;17.20;99.90;;;;;;5083435;28;20432;-75
2022/06/27 06:01:10;;;;;;;6.87;2.03;;;17.20;99.90;;;;;;5094430;28;20438;-77
2022/06/27 06:03:37;;;;;;;2.50;1.30;;;17.20;99.90;;;;;;5087537;28;20485;-77
2022/06/27 06:06:03;;;;;;;5.00;2.50;;;17.10;99.90;;;;;;5083357;28;20465;-77
2022/06/27 06:08:29;;;;;;;3.60;1.70;;;17.20;99.90;;;;;;5082323;28;20739;-74
2022/06/27 06:10:55;;;;;;;5.50;1.90;;;17.20;99.90;;;;;;5082089;28;20237;-77
2022/06/27 06:13:22;;;;;;;7.53;2.27;;;17.10;99.90;;;;;;5077499;28;20925;-77
2022/06/27 06:15:47;;;;;;;15.57;2.30;;;17.20;99.90;;;;;;5079699;28;20427;-74
2022/06/27 06:18:14;;;;;;;8.77;2.50;;;17.30;99.90;;;;;;5077810;28;20458;-77
2022/06/27 06:20:40;;;;;;;5.50;2.10;;;17.40;99.90;;;;;;5074709;28;20239;-77
2022/06/27 06:23:06;;;;;;;3.17;1.83;;;17.50;99.90;;;;;;5078126;28;21026;-76
2022/06/27 06:25:32;;;;;;;5.37;2.23;;;17.60;99.90;;;;;;5091271;28;20197;-77
2022/06/27 06:28:01;;;;;;;3.60;2.30;;;17.70;99.90;;;;;;5082848;28;20180;-77
2022/06/27 06:30:29;;;;;;;2.30;1.50;;;17.80;99.90;;;;;;5086040;28;20185;-78
2022/06/27 06:32:56;;;;;;;2.90;1.50;;;17.90;99.90;;;;;;5092511;28;20434;-77
2022/06/27 06:35:23;;;;;;;3.00;1.20;;;18.10;99.90;;;;;;5069629;28;20587;-77
2022/06/27 06:37:51;;;;;;;3.23;1.60;;;18.10;99.90;;;;;;5099604;28;20504;-77
2022/06/27 06:40:16;;;;;;;2.10;1.33;;;18.20;99.90;;;;;;5085160;28;20443;-74
2022/06/27 06:42:42;;;;;;;3.50;1.43;;;18.30;99.90;;;;;;5083592;28;20465;-76
2022/06/27 06:45:08;;;;;;;2.20;1.40;;;18.40;99.90;;;;;;5089589;28;20267;-77
2022/06/27 06:47:42;;;;;;;3.93;1.43;;;18.40;99.90;;;;;;5071995;28;20210;-77
2022/06/27 06:50:09;;;;;;;3.80;1.40;;;18.50;99.90;;;;;;5075962;28;20524;-78
2022/06/27 06:52:38;;;;;;;1.93;0.90;;;18.60;99.90;;;;;;5074570;28;20409;-77
2022/06/27 06:55:04;;;;;;;3.30;0.80;;;18.70;99.90;;;;;;5085453;28;20824;-77
2022/06/27 06:57:30;;;;;;;2.23;0.80;;;18.90;99.90;;;;;;5072485;28;20414;-75
2022/06/27 06:59:55;;;;;;;2.03;1.10;;;19.20;99.90;;;;;;5076677;28;20486;-77
2022/06/27 07:02:21;;;;;;;1.73;0.77;;;19.30;99.90;;;;;;5071720;28;20706;-77
2022/06/27 07:04:47;;;;;;;2.70;1.00;;;19.40;99.90;;;;;;5081881;28;20205;-77
2022/06/27 07:07:13;;;;;;;5.00;0.97;;;19.50;99.90;;;;;;5089613;28;20187;-76
2022/06/27 07:09:39;;;;;;;1.97;0.80;;;19.70;99.90;;;;;;5073904;28;20177;-77
2022/06/27 07:12:05;;;;;;;1.50;0.60;;;19.90;99.90;;;;;;5072809;28;20474;-77
2022/06/27 07:14:31;;;;;;;1.50;0.60;;;20.00;99.90;;;;;;5089078;28;20211;-75
2022/06/27 07:16:56;;;;;;;2.30;0.80;;;20.10;99.90;;;;;;5087836;28;20414;-77
2022/06/27 07:19:23;;;;;;;2.30;0.83;;;20.20;99.90;;;;;;5088218;28;20714;-77
2022/06/27 07:21:48;;;;;;;1.37;0.60;;;20.30;99.90;;;;;;5085939;28;20188;-75
2022/06/27 07:24:14;;;;;;;1.60;0.70;;;20.40;99.90;;;;;;5091984;28;20471;-77
2022/06/27 07:26:39;;;;;;;2.30;1.30;;;20.70;99.90;;;;;;5105615;28;20595;-77
2022/06/27 07:29:06;;;;;;;2.00;0.70;;;20.80;99.90;;;;;;5104562;28;20270;-77
2022/06/27 07:31:32;;;;;;;2.83;0.70;;;21.10;99.90;;;;;;5091260;28;21021;-75
2022/06/27 07:33:59;;;;;;;1.80;0.70;;;21.10;99.90;;;;;;5084180;28;20926;-78
2022/06/27 07:36:25;;;;;;;1.53;0.60;;;21.00;99.90;;;;;;5074771;28;20433;-78
2022/06/27 07:38:52;;;;;;;1.70;0.80;;;21.20;99.90;;;;;;5086918;28;20526;-77
2022/06/27 07:41:22;;;;;;;1.73;0.60;;;21.30;99.90;;;;;;5085765;28;20465;-78
2022/06/27 07:43:48;;;;;;;1.40;0.63;;;21.30;99.90;;;;;;5070453;28;20446;-77
2022/06/27 07:46:17;;;;;;;3.00;0.90;;;21.40;99.90;;;;;;5082600;28;20458;-78
2022/06/27 07:48:44;;;;;;;1.90;0.70;;;21.40;99.90;;;;;;5078568;28;20426;-77
2022/06/27 07:51:10;;;;;;;2.20;1.03;;;21.50;99.90;;;;;;5082161;28;20445;-77
2022/06/27 07:53:37;;;;;;;2.37;0.60;;;22.00;99.90;;;;;;5100752;28;20939;-77
2022/06/27 07:56:06;;;;;;;1.63;0.77;;;22.20;99.90;;;;;;5090825;28;20210;-77
2022/06/27 07:58:38;;;;;;;3.87;0.93;;;22.40;99.90;;;;;;5080744;28;20430;-77
2022/06/27 08:01:09;;;;;;;1.67;0.70;;;22.90;99.90;;;;;;5068434;28;20541;-78
2022/06/27 08:03:42;;;;;;;2.37;0.90;;;23.30;99.90;;;;;;5085940;28;20462;-77
2022/06/27 08:06:18;;;;;;;9.13;0.90;;;23.40;99.90;;;;;;5071919;28;20561;-78
2022/06/27 08:08:55;;;;;;;5.53;1.03;;;23.70;99.90;;;;;;5065675;28;20436;-77
2022/06/27 08:11:41;;;;;;;1.70;0.67;;;23.80;99.90;;;;;;5081516;28;20483;-77
2022/06/27 08:14:11;;;;;;;2.00;0.83;;;23.30;99.90;;;;;;5058179;28;20438;-78
2022/06/27 08:16:39;;;;;;;3.30;1.10;;;23.10;99.90;;;;;;5085090;28;20923;-77
2022/06/27 08:19:06;;;;;;;2.00;0.73;;;23.10;99.90;;;;;;5081881;28;20835;-78
2022/06/27 08:21:33;;;;;;;1.77;0.70;;;23.50;99.90;;;;;;5080399;28;20480;-77
2022/06/27 08:24:02;;;;;;;2.80;0.77;;;23.90;99.90;;;;;;5079454;28;20499;-77
2022/06/27 08:26:29;;;;;;;4.80;0.70;;;24.00;99.90;;;;;;5081349;28;20479;-76
2022/06/27 08:28:56;;;;;;;1.40;0.60;;;23.90;99.90;;;;;;5071750;28;20424;-77
2022/06/27 08:31:22;;;;;;;1.87;0.90;;;23.70;99.90;;;;;;5070544;28;20432;-78
2022/06/27 08:33:51;;;;;;;1.90;0.73;;;23.40;99.90;;;;;;5087151;28;20457;-78
2022/06/27 08:36:23;;;;;;;2.57;1.07;;;23.40;99.90;;;;;;5063576;28;20434;-77
2022/06/27 08:38:50;;;;;;;7.73;0.73;;;23.30;99.90;;;;;;5071597;28;21375;-77
2022/06/27 08:41:20;;;;;;;1.60;0.70;;;23.20;99.90;;;;;;5088766;28;20444;-77
2022/06/27 08:43:48;;;;;;;2.27;0.80;;;23.20;99.90;;;;;;5097477;28;20852;-78
2022/06/27 08:46:16;;;;;;;1.50;0.60;;;23.30;99.90;;;;;;5089898;28;20463;-77
2022/06/27 08:48:45;;;;;;;1.50;0.60;;;23.10;99.90;;;;;;5092424;28;20809;-78
2022/06/27 08:51:12;;;;;;;1.70;0.70;;;23.20;99.90;;;;;;5075684;28;20418;-78
2022/06/27 08:53:38;;;;;;;2.47;1.00;;;23.00;99.90;;;;;;5087372;28;20938;-78
2022/06/27 08:56:08;;;;;;;2.00;0.70;;;22.80;99.90;;;;;;5089905;28;20845;-78
2022/06/27 08:58:35;;;;;;;2.40;1.10;;;22.70;99.90;;;;;;5086147;28;20811;-78
2022/06/27 09:01:01;;;;;;;2.63;0.70;;;22.50;99.90;;;;;;5076392;28;20437;-77
2022/06/27 09:03:27;;;;;;;2.77;0.70;;;22.20;99.90;;;;;;5072989;28;20442;-78
2022/06/27 09:05:59;;;;;;;1.40;0.60;;;22.20;99.90;;;;;;5074771;28;20462;-77
2022/06/27 09:08:27;;;;;;;2.37;1.03;;;22.30;99.90;;;;;;5073727;28;20433;-78
2022/06/27 09:10:53;;;;;;;5.80;1.07;;;22.40;99.90;;;;;;5071970;28;20426;-78
2022/06/27 09:13:20;;;;;;;3.40;1.00;;;22.30;99.90;;;;;;5071182;28;20437;-77
2022/06/27 09:15:55;;;;;;;3.93;0.77;;;22.20;99.90;;;;;;5085937;28;20175;-77
2022/06/27 09:18:35;;;;;;;1.70;0.67;;;22.10;99.90;;;;;;5087511;28;20441;-77
2022/06/27 09:21:05;;;;;;;2.17;0.80;;;22.00;99.90;;;;;;5077374;28;20429;-77
2022/06/27 09:23:58;;;;;;;2.70;0.70;;;22.00;99.90;;;;;;5076818;28;20839;-77
2022/06/27 09:26:28;;;;;;;2.73;1.10;;;22.20;99.90;;;;;;5067489;28;20466;-77
2022/06/27 09:29:09;;;;;;;2.43;1.10;;;22.00;99.90;;;;;;5075526;28;20489;-75
2022/06/27 09:31:37;;;;;;;2.00;0.80;;;22.20;99.90;;;;;;5077217;28;20438;-76
2022/06/27 09:34:09;;;;;;;1.67;0.83;;;22.60;99.90;;;;;;5070111;28;20458;-77
2022/06/27 09:36:38;;;;;;;1.60;0.70;;;23.20;99.90;;;;;;5071667;28;20450;-77
2022/06/27 09:39:06;;;;;;;3.50;0.70;;;23.50;99.90;;;;;;5077914;28;20489;-77
2022/06/27 09:41:33;;;;;;;1.50;0.60;;;23.40;99.90;;;;;;5079027;28;20804;-77
2022/06/27 09:44:04;;;;;;;2.37;0.70;;;23.50;99.90;;;;;;5081688;28;20462;-78
2022/06/27 09:46:35;;;;;;;3.63;1.03;;;23.50;99.90;;;;;;5073317;28;20519;-77
2022/06/27 09:49:05;;;;;;;1.40;0.60;;;23.40;99.90;;;;;;5074708;28;20955;-78
2022/06/27 09:51:34;;;;;;;2.27;1.00;;;23.20;99.90;;;;;;5073686;28;20445;-77
2022/06/27 09:54:08;;;;;;;2.00;0.60;;;22.80;99.90;;;;;;5071948;28;20461;-77
2022/06/27 09:56:37;;;;;;;3.37;1.37;;;22.40;99.90;;;;;;5069971;28;20637;-77
2022/06/27 09:59:04;;;;;;;1.80;1.00;;;22.30;99.90;;;;;;5062164;28;20477;-78
2022/06/27 10:01:30;;;;;;;3.17;1.10;;;22.10;99.90;;;;;;5075086;28;20505;-77
2022/06/27 10:03:57;;;;;;;4.73;1.43;;;22.00;99.90;;;;;;5074459;28;20462;-77
2022/06/27 10:06:25;;;;;;;1.87;0.70;;;21.80;99.90;;;;;;5084072;28;20196;-77
2022/06/27 10:08:51;;;;;;;2.40;1.03;;;21.70;99.90;;;;;;5076128;28;20435;-77
2022/06/27 10:11:17;;;;;;;1.90;0.90;;;21.60;99.90;;;;;;5110912;28;20437;-76
2022/06/27 10:13:43;;;;;;;6.10;1.23;;;21.50;99.90;;;;;;5112269;28;20808;-76
2022/06/27 10:16:14;;;;;;;3.90;0.90;;;21.50;99.90;;;;;;5101943;28;20189;-76
2022/06/27 10:19:03;;;;;;;2.50;1.33;;;21.50;99.90;;;;;;5082700;28;20529;-77
2022/06/27 10:21:42;;;;;;;3.07;0.90;;;21.40;99.90;;;;;;5081313;28;20487;-76
2022/06/27 10:24:21;;;;;;;2.53;1.03;;;21.40;99.90;;;;;;5081794;28;20465;-77
2022/06/27 10:26:49;;;;;;;9.33;1.00;;;21.30;99.90;;;;;;5080977;28;20516;-75
2022/06/27 10:29:30;;;;;;;5.43;1.00;;;21.30;99.90;;;;;;5082226;28;20430;-76
2022/06/27 10:31:57;;;;;;;2.20;0.87;;;21.30;99.90;;;;;;5079860;28;20485;-77
2022/06/27 10:34:43;;;;;;;2.53;1.00;;;21.30;99.90;;;;;;5076351;28;20478;-76
2022/06/27 10:37:26;;;;;;;2.40;1.00;;;21.30;99.90;;;;;;5081710;28;20433;-77
2022/06/27 10:40:21;;;;;;;2.07;1.00;;;21.40;99.90;;;;;;5069718;28;20423;-77
2022/06/27 10:42:46;;;;;;;2.00;0.83;;;21.60;99.90;;;;;;5061960;28;20431;-76
2022/06/27 10:45:21;;;;;;;1.80;0.80;;;21.80;99.90;;;;;;5074842;28;21033;-76
2022/06/27 10:47:57;;;;;;;2.33;1.30;;;22.10;99.90;;;;;;5072031;28;20185;-77
2022/06/27 10:50:24;;;;;;;3.27;1.00;;;22.30;99.90;;;;;;5076654;28;20454;-76
2022/06/27 10:53:10;;;;;;;1.80;0.90;;;22.40;99.90;;;;;;5073684;28;20422;-76
2022/06/27 10:55:35;;;;;;;2.67;0.87;;;22.50;99.90;;;;;;5082176;28;20450;-76
2022/06/27 10:58:22;;;;;;;3.10;1.13;;;22.40;99.90;;;;;;5074301;28;20419;-76
2022/06/27 11:00:48;;;;;;;1.70;0.70;;;22.80;99.90;;;;;;5078950;28;20188;-76
2022/06/27 11:03:40;;;;;;;2.40;0.70;;;23.10;99.90;;;;;;5086825;28;20454;-77
2022/06/27 11:06:08;;;;;;;1.57;0.70;;;23.60;99.90;;;;;;5075156;28;20494;-76
2022/06/27 11:08:36;;;;;;;3.60;0.70;;;24.10;99.90;;;;;;5065846;28;20461;-76
2022/06/27 11:11:03;;;;;;;1.80;0.73;;;24.10;99.90;;;;;;5079396;28;20522;-76
2022/06/27 11:13:54;;;;;;;1.43;0.53;;;24.00;99.80;;;;;;5081181;28;20499;-74
2022/06/27 11:16:31;;;;;;;1.50;0.63;;;23.50;99.90;;;;;;5083159;28;20429;-76
2022/06/27 11:21:51;;;;;;;1.70;0.70;;;23.00;99.90;;;;;;5079488;28;20421;-77
2022/06/27 11:24:17;;;;;;;2.03;0.70;;;22.70;99.90;;;;;;5074819;28;21024;-77
2022/06/27 11:26:49;;;;;;;3.70;1.30;;;22.80;99.90;;;;;;5080187;28;20465;-75
2022/06/27 11:32:12;;;;;;;4.97;1.03;;;22.50;99.90;;;;;;5086918;28;20483;-77
2022/06/27 11:34:48;;;;;;;1.70;0.93;;;22.30;99.90;;;;;;5082634;28;20441;-77
2022/06/27 11:37:16;;;;;;;1.70;0.80;;;22.20;99.90;;;;;;5086625;28;20474;-78
2022/06/27 11:39:55;;;;;;;4.03;0.80;;;22.00;99.90;;;;;;5086798;28;20587;-76
2022/06/27 11:42:34;;;;;;;1.50;0.70;;;22.00;99.90;;;;;;5092485;28;20425;-78
2022/06/27 11:45:08;;;;;;;1.90;1.10;;;22.10;99.90;;;;;;5068317;28;20453;-77
2022/06/27 11:47:35;;;;;;;5.27;1.30;;;22.00;99.90;;;;;;5078665;28;20433;-77
2022/06/27 11:50:13;;;;;;;6.90;1.50;;;22.00;99.90;;;;;;5076793;28;20407;-77
2022/06/27 11:52:45;;;;;;;2.43;1.03;;;22.00;99.90;;;;;;5085072;28;20491;-78
2022/06/27 11:55:24;;;;;;;1.70;0.87;;;22.00;99.90;;;;;;5078563;28;20817;-77
2022/06/27 11:57:54;;;;;;;8.80;1.00;;;21.80;99.90;;;;;;5060249;28;20435;-76
2022/06/27 12:00:32;;;;;;;3.00;0.80;;;21.70;99.90;;;;;;5081948;28;20508;-78
2022/06/27 12:03:07;;;;;;;8.40;1.10;;;21.70;99.90;;;;;;5092331;28;20882;-75
2022/06/27 12:05:35;;;;;;;2.80;1.33;;;21.60;99.90;;;;;;5088745;28;20461;-76
2022/06/27 12:08:09;;;;;;;1.77;0.90;;;21.70;99.90;;;;;;5105782;28;20410;-77
2022/06/27 12:10:35;;;;;;;3.40;1.20;;;21.50;99.90;;;;;;5098751;28;20413;-76
2022/06/27 12:13:01;;;;;;;10.17;1.20;;;21.30;99.90;;;;;;5079295;28;20420;-76
2022/06/27 12:15:26;;;;;;;1.97;0.73;;;21.20;99.90;;;;;;5093921;28;20249;-77
2022/06/27 12:17:56;;;;;;;4.70;0.70;;;21.00;99.90;;;;;;5100209;28;20418;-77
2022/06/27 12:20:23;;;;;;;5.97;1.10;;;21.00;99.90;;;;;;5091474;28;20855;-78
2022/06/27 12:22:49;;;;;;;1.90;1.00;;;21.00;99.90;;;;;;5097231;28;20915;-76
2022/06/27 12:25:14;;;;;;;3.10;0.90;;;20.80;99.90;;;;;;5083761;28;20418;-78
2022/06/27 12:27:41;;;;;;;1.90;0.90;;;20.70;99.90;;;;;;5094018;28;20429;-77
2022/06/27 12:30:07;;;;;;;3.17;1.00;;;20.70;99.90;;;;;;5097803;28;20223;-78
2022/06/27 12:32:33;;;;;;;3.00;1.43;;;20.70;99.90;;;;;;5091936;28;20439;-78
2022/06/27 12:34:59;;;;;;;6.90;1.20;;;20.70;99.90;;;;;;5087347;28;20438;-78
2022/06/27 12:37:24;;;;;;;1.60;0.80;;;20.70;99.90;;;;;;5086138;28;20199;-77
2022/06/27 12:39:50;;;;;;;1.90;1.00;;;20.80;99.90;;;;;;5104223;28;20177;-78
2022/06/27 12:42:15;;;;;;;2.57;1.00;;;20.90;99.90;;;;;;5108689;28;20176;-77
2022/06/27 12:44:41;;;;;;;4.13;1.27;;;21.10;99.90;;;;;;5103668;28;20266;-78
2022/06/27 12:47:07;;;;;;;2.33;1.00;;;21.20;99.90;;;;;;5099035;28;20208;-77
2022/06/27 12:49:32;;;;;;;3.10;1.23;;;21.20;99.90;;;;;;5124586;28;20167;-77
2022/06/27 12:51:58;;;;;;;2.20;0.90;;;21.20;99.90;;;;;;5112009;27;20168;-78
2022/06/27 12:54:24;;;;;;;3.93;1.03;;;21.30;99.90;;;;;;5126781;27;20216;-76
2022/06/27 12:56:49;;;;;;;2.23;1.17;;;21.40;99.90;;;;;;5105963;28;20201;-78
2022/06/27 12:59:15;;;;;;;2.43;0.73;;;21.70;99.90;;;;;;5091125;28;20782;-77
2022/06/27 13:01:41;;;;;;;1.70;0.90;;;21.80;99.90;;;;;;5085470;28;20918;-76